createdAt,value
2022-12-18T00:01:27.790Z,80.10
2022-12-18T00:03:56.706Z,80.20
2022-12-18T00:06:25.751Z,80.20
2022-12-18T00:08:53.842Z,80.20
2022-12-18T00:11:24.658Z,80.30
2022-12-18T00:13:54.187Z,80.40
2022-12-18T00:16:23.760Z,80.40
2022-12-18T00:18:54.091Z,80.50
2022-12-18T00:21:22.227Z,80.50
2022-12-18T00:23:50.777Z,80.50
2022-12-18T00:26:32.265Z,80.50
2022-12-18T00:29:08.938Z,80.60
2022-12-18T00:31:37.107Z,80.70
2022-12-18T00:34:05.039Z,80.60
2022-12-18T00:36:35.463Z,80.60
2022-12-18T00:39:05.806Z,80.60
2022-12-18T00:41:52.727Z,80.60
2022-12-18T00:44:20.693Z,80.60
2022-12-18T00:46:49.480Z,80.70
2022-12-18T00:49:19.898Z,80.70
2022-12-18T00:51:48.776Z,80.70
2022-12-18T00:54:17.108Z,80.70
2022-12-18T00:56:49.501Z,80.70
2022-12-18T00:59:19.944Z,80.70
2022-12-18T01:01:48.262Z,80.70
2022-12-18T01:04:16.337Z,80.60
2022-12-18T01:06:46.754Z,80.60
2022-12-18T01:09:14.508Z,80.60
2022-12-18T01:11:42.125Z,80.50
2022-12-18T01:14:11.949Z,80.50
2022-12-18T01:16:39.620Z,80.40
2022-12-18T01:19:07.435Z,80.40
2022-12-18T01:21:35.017Z,80.30
2022-12-18T01:24:05.426Z,80.30
2022-12-18T01:26:42.628Z,80.30
2022-12-18T01:29:10.230Z,80.20
2022-12-18T01:31:37.981Z,80.10
2022-12-18T01:34:06.731Z,80.10
2022-12-18T01:36:37.995Z,80.10
2022-12-18T01:39:08.215Z,80.10
2022-12-18T01:41:55.200Z,80.10
2022-12-18T01:45:16.890Z,80.10
2022-12-18T01:47:46.595Z,80.10
2022-12-18T01:50:28.462Z,80.20
2022-12-18T01:53:05.091Z,80.20
2022-12-18T01:55:48.375Z,80.20
2022-12-18T01:58:17.547Z,80.30
2022-12-18T02:00:45.178Z,80.30
2022-12-18T02:03:13.367Z,80.30
2022-12-18T02:05:47.004Z,80.30
2022-12-18T02:08:26.592Z,80.20
2022-12-18T02:11:28.677Z,80.20
2022-12-18T02:14:10.278Z,80.20
2022-12-18T02:16:57.402Z,80.20
2022-12-18T02:19:55.941Z,80.20
2022-12-18T02:22:55.405Z,80.20
2022-12-18T02:26:03.002Z,80.20
2022-12-18T02:28:35.044Z,80.10
2022-12-18T02:31:10.984Z,80.10
2022-12-18T02:33:40.054Z,80.00
2022-12-18T02:36:10.345Z,80.00
2022-12-18T02:38:39.246Z,80.00
2022-12-18T02:41:14.432Z,80.00
2022-12-18T02:43:48.563Z,80.00
2022-12-18T02:46:32.395Z,79.90
2022-12-18T02:49:29.305Z,80.00
2022-12-18T02:52:17.409Z,79.90
2022-12-18T02:54:51.459Z,80.00
2022-12-18T02:57:42.553Z,80.00
2022-12-18T03:00:23.031Z,79.90
2022-12-18T03:03:10.818Z,79.90
2022-12-18T03:05:54.960Z,79.90
2022-12-18T03:08:27.343Z,79.90
2022-12-18T03:11:09.251Z,79.80
2022-12-18T03:13:45.942Z,79.80
2022-12-18T03:16:24.201Z,79.80
2022-12-18T03:19:18.137Z,79.70
2022-12-18T03:21:49.315Z,79.70
2022-12-18T03:24:20.246Z,79.70
2022-12-18T03:26:54.859Z,79.60
2022-12-18T03:29:39.768Z,79.60
2022-12-18T03:32:22.295Z,79.60
2022-12-18T03:34:54.951Z,79.60
2022-12-18T03:37:24.370Z,79.60
2022-12-18T03:39:53.705Z,79.60
2022-12-18T03:42:53.948Z,79.60
2022-12-18T03:45:37.257Z,79.60
2022-12-18T03:48:30.109Z,80.20
2022-12-18T03:51:07.237Z,79.70
2022-12-18T03:53:54.040Z,79.70
2022-12-18T03:56:29.380Z,79.70
2022-12-18T03:59:00.363Z,79.70
2022-12-18T04:01:38.750Z,79.80
2022-12-18T04:04:08.302Z,79.80
2022-12-18T04:06:39.786Z,79.80
2022-12-18T04:09:09.539Z,79.80
2022-12-18T04:11:45.675Z,79.80
2022-12-18T04:14:18.161Z,79.90
2022-12-18T04:16:49.265Z,79.90
2022-12-18T04:19:19.986Z,79.90
2022-12-18T04:21:50.864Z,79.90
2022-12-18T04:24:19.042Z,79.80
2022-12-18T04:26:55.810Z,79.90
2022-12-18T04:29:26.907Z,79.90
2022-12-18T04:31:54.445Z,79.90
2022-12-18T04:34:22.736Z,79.90
2022-12-18T04:36:53.285Z,79.90
2022-12-18T04:39:22.725Z,79.90
2022-12-18T04:41:52.507Z,79.90
2022-12-18T04:44:20.069Z,79.90
2022-12-18T04:46:47.559Z,80.00
2022-12-18T04:49:15.814Z,79.90
2022-12-18T04:51:43.266Z,80.50
2022-12-18T04:54:10.696Z,79.90
2022-12-18T04:56:38.308Z,79.90
2022-12-18T04:59:06.215Z,80.00
2022-12-18T05:01:35.047Z,80.00
2022-12-18T05:04:03.660Z,79.90
2022-12-18T05:06:31.190Z,79.80
2022-12-18T05:08:58.891Z,79.80
2022-12-18T05:11:26.312Z,79.80
2022-12-18T05:13:53.801Z,79.80
2022-12-18T05:16:21.508Z,79.70
2022-12-18T05:18:49.245Z,79.70
2022-12-18T05:21:16.756Z,79.70
2022-12-18T05:23:44.499Z,79.70
2022-12-18T05:26:18.373Z,79.70
2022-12-18T05:28:47.233Z,79.80
2022-12-18T05:31:15.133Z,79.70
2022-12-18T05:34:15.542Z,79.80
2022-12-18T05:36:43.075Z,79.80
2022-12-18T05:39:12.263Z,79.80
2022-12-18T05:41:39.736Z,79.70
2022-12-18T05:44:07.244Z,79.70
2022-12-18T05:46:34.695Z,79.70
2022-12-18T05:49:04.889Z,79.70
2022-12-18T05:51:32.697Z,79.70
2022-12-18T05:54:00.106Z,79.70
2022-12-18T05:56:27.595Z,79.70
2022-12-18T05:58:55.592Z,79.70
2022-12-18T06:01:26.537Z,79.60
2022-12-18T06:03:54.538Z,79.60
2022-12-18T06:06:25.424Z,79.60
2022-12-18T06:08:53.300Z,79.60
2022-12-18T06:11:24.149Z,79.50
2022-12-18T06:13:58.687Z,79.50
2022-12-18T06:16:31.128Z,79.50
2022-12-18T06:19:00.163Z,79.50
2022-12-18T06:21:29.065Z,79.50
2022-12-18T06:23:57.042Z,79.40
2022-12-18T06:26:28.526Z,79.40
2022-12-18T06:28:56.621Z,79.40
2022-12-18T06:31:24.333Z,79.50
2022-12-18T06:33:51.841Z,79.50
2022-12-18T06:36:19.517Z,79.50
2022-12-18T06:38:47.091Z,79.50
2022-12-18T06:41:20.496Z,79.40
2022-12-18T06:43:48.181Z,79.40
2022-12-18T06:46:16.001Z,79.40
2022-12-18T06:48:43.537Z,79.40
2022-12-18T06:51:11.848Z,79.30
2022-12-18T06:53:40.263Z,79.40
2022-12-18T06:56:10.525Z,79.40
2022-12-18T06:58:39.423Z,79.40
2022-12-18T07:01:10.421Z,79.40
2022-12-18T07:03:39.415Z,79.40
2022-12-18T07:06:07.440Z,79.30
2022-12-18T07:08:35.031Z,79.40
2022-12-18T07:11:05.613Z,79.40
2022-12-18T07:13:33.336Z,79.40
2022-12-18T07:16:18.424Z,79.40
2022-12-18T07:18:50.145Z,79.40
2022-12-18T07:21:20.559Z,79.40
2022-12-18T07:23:49.445Z,79.50
2022-12-18T07:26:20.185Z,79.50
2022-12-18T07:28:48.374Z,79.50
2022-12-18T07:31:19.624Z,79.50
2022-12-18T07:33:49.568Z,79.50
2022-12-18T07:36:17.806Z,79.50
2022-12-18T07:38:49.339Z,79.60
2022-12-18T07:41:17.396Z,79.50
2022-12-18T07:43:45.031Z,79.50
2022-12-18T07:46:17.000Z,79.60
2022-12-18T07:48:49.849Z,79.50
2022-12-18T07:51:18.735Z,79.60
2022-12-18T07:53:46.473Z,79.60
2022-12-18T07:56:32.137Z,79.60
2022-12-18T07:59:00.692Z,79.60
2022-12-18T08:01:28.538Z,79.60
2022-12-18T08:03:56.247Z,79.60
2022-12-18T08:06:24.573Z,79.70
2022-12-18T08:08:54.464Z,79.70
2022-12-18T08:11:23.046Z,79.70
2022-12-18T08:13:50.681Z,80.20
2022-12-18T08:16:18.842Z,79.70
2022-12-18T08:18:48.208Z,79.70
2022-12-18T08:21:25.466Z,79.70
2022-12-18T08:23:54.537Z,79.70
2022-12-18T08:26:22.230Z,79.60
2022-12-18T08:28:51.084Z,79.70
2022-12-18T08:31:19.917Z,79.70
2022-12-18T08:33:51.447Z,79.70
2022-12-18T08:36:19.002Z,79.60
2022-12-18T08:38:47.560Z,79.60
2022-12-18T08:41:17.054Z,79.60
2022-12-18T08:44:03.057Z,79.70
2022-12-18T08:46:36.377Z,79.70
2022-12-18T08:49:05.107Z,79.70
2022-12-18T08:51:33.014Z,79.70
2022-12-18T08:54:00.607Z,79.70
2022-12-18T08:56:28.237Z,79.70
2022-12-18T08:58:56.462Z,79.70
2022-12-18T09:01:24.519Z,79.70
2022-12-18T09:03:52.179Z,79.70
2022-12-18T09:06:21.078Z,79.70
2022-12-18T09:08:49.107Z,79.70
2022-12-18T09:11:25.952Z,79.70
2022-12-18T09:13:55.039Z,79.70
2022-12-18T09:16:27.431Z,79.80
2022-12-18T09:19:03.258Z,79.70
2022-12-18T09:21:35.803Z,80.40
2022-12-18T09:24:08.566Z,79.80
2022-12-18T09:26:37.997Z,79.80
2022-12-18T09:29:08.323Z,79.80
2022-12-18T09:31:37.307Z,79.80
2022-12-18T09:34:08.057Z,79.80
2022-12-18T09:36:35.618Z,79.80
2022-12-18T09:39:08.117Z,79.80
2022-12-18T09:41:42.157Z,79.90
2022-12-18T09:44:17.845Z,79.90
2022-12-18T09:47:08.233Z,79.90
2022-12-18T09:49:43.309Z,79.90
2022-12-18T09:52:38.560Z,79.80
2022-12-18T09:55:15.665Z,79.80
2022-12-18T09:57:49.143Z,79.80
2022-12-18T10:00:23.105Z,79.80
2022-12-18T10:02:53.351Z,79.70
2022-12-18T10:05:35.627Z,79.80
2022-12-18T10:08:38.662Z,79.70
2022-12-18T10:11:14.894Z,79.80
2022-12-18T10:13:53.587Z,79.70
2022-12-18T10:16:35.581Z,79.80
2022-12-18T10:19:21.589Z,79.80
2022-12-18T10:22:02.525Z,79.90
2022-12-18T10:24:35.873Z,79.90
2022-12-18T10:27:25.561Z,80.00
2022-12-18T10:29:53.187Z,80.00
2022-12-18T10:32:27.736Z,80.00
2022-12-18T10:35:00.822Z,80.00
2022-12-18T10:37:30.943Z,80.00
2022-12-18T10:40:22.204Z,80.00
2022-12-18T10:43:27.989Z,79.90
2022-12-18T10:46:10.354Z,79.90
2022-12-18T10:48:41.127Z,79.80
2022-12-18T10:51:12.275Z,79.70
2022-12-18T10:53:44.130Z,79.60
2022-12-18T10:56:12.593Z,79.60
2022-12-18T10:58:41.467Z,79.60
2022-12-18T11:01:16.974Z,79.50
2022-12-18T11:03:44.545Z,79.40
2022-12-18T11:06:22.899Z,79.40
2022-12-18T11:09:23.426Z,79.40
2022-12-18T11:12:00.406Z,79.30
2022-12-18T11:14:47.389Z,79.30
2022-12-18T11:17:26.690Z,79.30
2022-12-18T11:20:06.371Z,79.40
2022-12-18T11:22:36.450Z,79.40
2022-12-18T11:25:32.582Z,79.40
2022-12-18T11:28:03.261Z,79.30
2022-12-18T11:30:36.662Z,79.40
2022-12-18T11:33:23.023Z,79.40
2022-12-18T11:36:06.456Z,79.30
2022-12-18T11:38:35.866Z,79.30
2022-12-18T11:41:18.748Z,79.40
2022-12-18T11:43:51.862Z,79.30
2022-12-18T11:46:50.381Z,79.30
2022-12-18T11:49:37.400Z,79.30
2022-12-18T11:52:28.571Z,79.20
2022-12-18T11:55:01.121Z,79.10
2022-12-18T11:58:00.756Z,79.20
2022-12-18T12:00:28.594Z,79.10
2022-12-18T12:03:20.179Z,79.10
2022-12-18T12:06:08.470Z,79.00
2022-12-18T12:08:48.255Z,78.90
2022-12-18T12:11:37.306Z,78.90
2022-12-18T12:14:21.860Z,78.90
2022-12-18T12:16:58.619Z,78.80
2022-12-18T12:19:26.375Z,78.80
2022-12-18T12:22:05.569Z,78.80
2022-12-18T12:25:00.829Z,78.80
2022-12-18T12:28:02.265Z,78.80
2022-12-18T12:30:57.558Z,78.80
2022-12-18T12:33:50.178Z,78.80
2022-12-18T12:36:20.406Z,78.80
2022-12-18T12:38:56.569Z,78.80
2022-12-18T12:41:50.801Z,78.70
2022-12-18T12:44:26.706Z,78.70
2022-12-18T12:46:58.735Z,78.70
2022-12-18T12:49:31.193Z,78.60
2022-12-18T12:52:07.451Z,78.60
2022-12-18T12:54:36.612Z,78.60
2022-12-18T12:57:24.684Z,78.50
2022-12-18T13:00:12.636Z,78.40
2022-12-18T13:02:55.988Z,78.40
2022-12-18T13:05:56.257Z,78.30
2022-12-18T13:08:27.416Z,78.30
2022-12-18T13:11:18.096Z,78.30
2022-12-18T13:13:55.893Z,78.30
2022-12-18T13:16:28.423Z,78.20
2022-12-18T13:18:59.945Z,78.30
2022-12-18T13:21:35.190Z,78.20
2022-12-18T13:24:31.894Z,78.20
2022-12-18T13:26:59.413Z,78.30
2022-12-18T13:29:56.348Z,78.20
2022-12-18T13:32:26.257Z,78.30
2022-12-18T13:35:19.689Z,78.20
2022-12-18T13:37:54.267Z,78.20
2022-12-18T13:40:40.330Z,78.30
2022-12-18T13:43:22.571Z,78.30
2022-12-18T13:46:28.471Z,78.20
2022-12-18T13:49:18.448Z,78.10
2022-12-18T13:51:49.898Z,78.00
2022-12-18T13:54:32.016Z,77.90
2022-12-18T13:56:59.570Z,77.90
2022-12-18T13:59:34.392Z,77.80
2022-12-18T14:02:11.508Z,77.80
2022-12-18T14:04:39.834Z,77.60
2022-12-18T14:07:13.673Z,77.70
2022-12-18T14:09:45.107Z,77.60
2022-12-18T14:12:57.934Z,77.60
2022-12-18T14:15:28.485Z,77.60
2022-12-18T14:18:12.886Z,77.70
2022-12-18T14:20:52.672Z,77.60
2022-12-18T14:23:35.706Z,77.60
2022-12-18T14:26:19.498Z,77.50
2022-12-18T14:28:47.551Z,77.60
2022-12-18T14:31:26.233Z,77.60
2022-12-18T14:33:54.558Z,77.50
2022-12-18T14:36:23.625Z,77.50
2022-12-18T14:38:55.199Z,77.70
2022-12-18T14:41:23.147Z,77.70
2022-12-18T14:43:54.116Z,77.70
2022-12-18T14:46:40.105Z,77.70
2022-12-18T14:49:27.833Z,77.70
2022-12-18T14:51:56.384Z,77.70
2022-12-18T14:54:25.094Z,77.80
2022-12-18T14:57:01.359Z,77.80
2022-12-18T14:59:29.578Z,77.80
2022-12-18T15:02:03.157Z,77.80
2022-12-18T15:04:37.338Z,77.80
2022-12-18T15:07:24.505Z,77.90
2022-12-18T15:10:04.718Z,77.80
2022-12-18T15:12:40.030Z,77.90
2022-12-18T15:15:27.312Z,77.90
2022-12-18T15:17:58.653Z,77.90
2022-12-18T15:20:29.137Z,77.90
2022-12-18T15:22:56.495Z,77.90
2022-12-18T15:25:32.748Z,77.90
2022-12-18T15:28:00.053Z,77.80
2022-12-18T15:30:27.608Z,77.80
2022-12-18T15:33:14.973Z,77.80
2022-12-18T15:35:46.785Z,77.80
2022-12-18T15:38:14.531Z,77.80
2022-12-18T15:40:42.871Z,77.90
2022-12-18T15:43:28.956Z,77.90
2022-12-18T15:45:56.287Z,77.90
2022-12-18T15:48:24.201Z,77.80
2022-12-18T15:50:52.249Z,77.90
2022-12-18T15:53:19.973Z,77.90
2022-12-18T15:56:06.369Z,77.90
2022-12-18T15:58:34.528Z,77.50
2022-12-18T16:01:03.343Z,77.70
2022-12-18T16:03:31.920Z,77.70
2022-12-18T16:06:01.554Z,77.70
2022-12-18T16:08:31.209Z,77.70
2022-12-18T16:10:59.653Z,77.70
2022-12-18T16:13:27.105Z,77.70
2022-12-18T16:15:54.737Z,77.70
2022-12-18T16:18:23.376Z,77.60
2022-12-18T16:20:51.167Z,77.60
2022-12-18T16:23:18.605Z,77.70
2022-12-18T16:25:46.178Z,77.70
2022-12-18T16:28:13.689Z,77.60
2022-12-18T16:30:41.555Z,77.70
2022-12-18T16:33:11.753Z,77.60
2022-12-18T16:35:39.375Z,77.60
2022-12-18T16:38:06.893Z,77.70
2022-12-18T16:40:34.745Z,77.70
2022-12-18T16:43:02.490Z,77.80
2022-12-18T16:45:34.282Z,77.80
2022-12-18T16:48:01.809Z,77.80
2022-12-18T16:50:29.754Z,77.90
2022-12-18T16:52:57.283Z,77.80
2022-12-18T16:55:24.766Z,77.80
2022-12-18T16:57:52.455Z,77.70
2022-12-18T17:00:20.148Z,77.70
2022-12-18T17:02:48.673Z,77.80
2022-12-18T17:05:16.345Z,77.70
2022-12-18T17:07:43.884Z,77.70
2022-12-18T17:10:11.443Z,77.80
2022-12-18T17:12:38.902Z,77.70
2022-12-18T17:15:07.052Z,77.70
2022-12-18T17:17:36.745Z,77.70
2022-12-18T17:20:05.349Z,77.70
2022-12-18T17:22:32.910Z,77.70
2022-12-18T17:25:00.374Z,77.70
2022-12-18T17:27:27.858Z,77.70
2022-12-18T17:29:55.949Z,77.60
2022-12-18T17:32:23.419Z,77.70
2022-12-18T17:34:50.936Z,77.60
2022-12-18T17:37:18.615Z,77.60
2022-12-18T17:39:46.079Z,77.60
2022-12-18T17:42:15.442Z,77.50
2022-12-18T17:44:43.863Z,77.50
2022-12-18T17:47:13.339Z,77.50
2022-12-18T17:49:41.012Z,77.50
2022-12-18T17:52:09.007Z,77.60
2022-12-18T17:54:40.021Z,77.50
2022-12-18T17:57:07.762Z,77.50
2022-12-18T17:59:35.293Z,77.60
2022-12-18T18:02:02.989Z,77.50
2022-12-18T18:04:30.621Z,77.50
2022-12-18T18:06:58.174Z,77.40
2022-12-18T18:09:25.862Z,77.50
2022-12-18T18:12:11.744Z,77.50
2022-12-18T18:14:39.507Z,77.40
2022-12-18T18:17:07.382Z,77.40
2022-12-18T18:19:35.042Z,77.40
2022-12-18T18:22:03.059Z,77.50
2022-12-18T18:24:33.350Z,77.50
2022-12-18T18:27:00.900Z,77.50
2022-12-18T18:29:30.643Z,77.40
2022-12-18T18:31:58.607Z,77.40
2022-12-18T18:34:29.467Z,77.40
2022-12-18T18:37:01.051Z,77.30
2022-12-18T18:39:28.754Z,77.30
2022-12-18T18:41:57.243Z,77.30
2022-12-18T18:44:27.792Z,77.20
2022-12-18T18:46:58.912Z,77.20
2022-12-18T18:49:27.976Z,77.20
2022-12-18T18:51:57.726Z,77.20
2022-12-18T18:54:26.941Z,77.10
2022-12-18T18:59:43.063Z,77.10
2022-12-18T19:02:14.024Z,77.10
2022-12-18T19:04:46.160Z,77.00
2022-12-18T19:07:23.894Z,77.00
2022-12-18T19:10:04.029Z,77.00
2022-12-18T19:12:52.155Z,76.90
2022-12-18T19:15:19.861Z,77.00
2022-12-18T19:17:47.969Z,77.00
2022-12-18T19:20:16.769Z,77.00
2022-12-18T19:22:47.917Z,77.00
2022-12-18T19:25:28.374Z,76.90
2022-12-18T19:28:19.274Z,76.90
2022-12-18T19:30:50.403Z,76.90
2022-12-18T19:33:42.011Z,76.80
2022-12-18T19:36:40.770Z,76.80
2022-12-18T19:39:12.281Z,76.80
2022-12-18T19:41:40.718Z,76.80
2022-12-18T19:44:12.124Z,76.80
2022-12-18T19:46:41.972Z,76.80
2022-12-18T19:49:17.542Z,76.70
2022-12-18T19:51:46.172Z,76.60
2022-12-18T19:54:17.273Z,76.70
2022-12-18T19:56:46.122Z,76.70
2022-12-18T19:59:14.353Z,76.60
2022-12-18T20:01:42.168Z,76.60
2022-12-18T20:04:09.938Z,76.60
2022-12-18T20:06:56.639Z,76.50
2022-12-18T20:09:24.336Z,76.40
2022-12-18T20:11:52.675Z,76.40
2022-12-18T20:14:23.574Z,76.40
2022-12-18T20:16:52.641Z,76.40
2022-12-18T20:19:21.064Z,76.40
2022-12-18T20:21:48.852Z,76.30
2022-12-18T20:24:16.685Z,76.30
2022-12-18T20:26:44.501Z,76.30
2022-12-18T20:29:12.068Z,76.30
2022-12-18T20:31:39.653Z,76.40
2022-12-18T20:34:08.356Z,76.30
2022-12-18T20:36:38.813Z,76.40
2022-12-18T20:39:09.888Z,76.30
2022-12-18T20:41:39.246Z,76.30
2022-12-18T20:44:23.152Z,76.30
2022-12-18T20:46:53.817Z,76.20
2022-12-18T20:49:22.002Z,76.20
2022-12-18T20:51:54.853Z,76.30
2022-12-18T20:54:23.785Z,76.20
2022-12-18T20:56:51.766Z,76.20
2022-12-18T20:59:20.004Z,76.20
2022-12-18T21:01:48.827Z,76.10
2022-12-18T21:04:18.489Z,76.10
2022-12-18T21:06:52.388Z,76.20
2022-12-18T21:09:23.854Z,76.10
2022-12-18T21:12:12.378Z,76.10
2022-12-18T21:14:42.331Z,76.20
2022-12-18T21:17:10.096Z,76.10
2022-12-18T21:19:37.958Z,76.10
2022-12-18T21:22:05.992Z,76.10
2022-12-18T21:24:33.727Z,76.20
2022-12-18T21:27:02.079Z,76.10
2022-12-18T21:29:29.834Z,76.10
2022-12-18T21:31:57.415Z,76.10
2022-12-18T21:34:26.985Z,76.10
2022-12-18T21:36:56.463Z,76.10
2022-12-18T21:39:25.704Z,76.10
2022-12-18T21:42:12.592Z,76.10
2022-12-18T21:44:41.924Z,76.00
2022-12-18T21:47:21.776Z,76.00
2022-12-18T21:49:52.893Z,76.10
2022-12-18T21:52:25.713Z,76.10
2022-12-18T21:55:06.676Z,76.10
2022-12-18T21:57:37.387Z,76.10
2022-12-18T22:00:06.579Z,76.10
2022-12-18T22:02:39.865Z,76.10
2022-12-18T22:05:08.160Z,76.10
2022-12-18T22:07:35.637Z,76.10
2022-12-18T22:10:03.212Z,76.00
2022-12-18T22:12:43.573Z,76.00
2022-12-18T22:15:21.308Z,76.00
2022-12-18T22:17:57.412Z,76.00
2022-12-18T22:20:30.045Z,76.10
2022-12-18T22:22:58.022Z,76.00
2022-12-18T22:25:25.627Z,76.00
2022-12-18T22:28:11.398Z,76.00
2022-12-18T22:30:38.887Z,76.00
2022-12-18T22:33:06.443Z,76.00
2022-12-18T22:35:33.952Z,76.00
2022-12-18T22:38:02.190Z,76.00
2022-12-18T22:40:29.877Z,76.00
2022-12-18T22:42:57.762Z,76.00
2022-12-18T22:45:26.912Z,76.00
2022-12-18T22:47:54.730Z,76.10
2022-12-18T22:50:22.317Z,76.00
2022-12-18T22:52:49.902Z,76.00
2022-12-18T22:55:17.394Z,76.10
2022-12-18T22:57:49.195Z,76.10
2022-12-18T23:00:24.134Z,76.20
2022-12-18T23:02:59.942Z,76.20
2022-12-18T23:05:32.030Z,76.30
2022-12-18T23:07:59.835Z,76.30
2022-12-18T23:10:28.270Z,76.30
2022-12-18T23:12:55.883Z,76.30
2022-12-18T23:15:28.040Z,76.30
2022-12-18T23:17:59.682Z,76.30
2022-12-18T23:20:28.038Z,76.40
2022-12-18T23:22:55.726Z,76.40
2022-12-18T23:25:23.452Z,76.50
2022-12-18T23:27:51.412Z,76.50
2022-12-18T23:30:19.074Z,76.50
2022-12-18T23:32:46.653Z,76.50
2022-12-18T23:35:15.791Z,76.50
2022-12-18T23:38:00.480Z,76.60
2022-12-18T23:40:30.165Z,76.60
2022-12-18T23:42:59.276Z,76.60
2022-12-18T23:45:26.696Z,76.60
2022-12-18T23:47:54.193Z,76.60
2022-12-18T23:50:22.162Z,76.60
2022-12-18T23:52:59.439Z,76.60
2022-12-18T23:55:33.181Z,76.70
2022-12-18T23:58:00.718Z,76.70
